Time;durP1;ratioP1;P1;durP2;ratioP2;P2;SDS_P1;SDS_P2;PMS_P1;PMS_P2;Temp;Humidity;BMP_temperature;BMP_pressure;BME280_temperature;BME280_humidity;BME280_pressure;Samples;Min_cycle;Max_cycle;Signal;HPM_P1;HPM_P2
2021/04/10 00:00:06;;;;;;;9.60;5.00;;;;;;;7.54;64.11;95731.88;1040659;28;20041;-73
2021/04/10 00:00:36;;;;;;;7.78;4.53;;;;;;;7.51;64.25;95736.91;1040702;28;20036;-73
2021/04/10 00:01:09;;;;;;;8.33;4.57;;;;;;;7.53;64.58;95729.50;1040651;28;20032;-72
2021/04/10 00:01:42;;;;;;;11.40;5.32;;;;;;;7.50;64.68;95743.28;1044626;28;20444;-72
2021/04/10 00:02:13;;;;;;;9.85;5.00;;;;;;;7.47;64.46;95735.81;1046270;28;20025;-72
2021/04/10 00:02:43;;;;;;;10.13;4.80;;;;;;;7.42;64.93;95735.78;1045913;28;20025;-73
2021/04/10 00:03:14;;;;;;;10.33;5.17;;;;;;;7.32;65.56;95741.03;1045914;28;20025;-73
2021/04/10 00:03:45;;;;;;;10.97;4.93;;;;;;;7.34;65.38;95738.94;1042259;28;20032;-71
2021/04/10 00:04:15;;;;;;;9.50;5.00;;;;;;;7.30;65.16;95738.63;1042273;28;20436;-72
2021/04/10 00:04:45;;;;;;;9.67;5.10;;;;;;;7.30;65.83;95742.09;1042407;28;20029;-72
2021/04/10 00:05:17;;;;;;;12.13;5.30;;;;;;;7.31;65.69;95748.22;1042562;28;20033;-72
2021/04/10 00:05:47;;;;;;;8.25;4.95;;;;;;;7.32;65.52;95751.66;1043542;28;20041;-72
2021/04/10 00:06:18;;;;;;;8.33;4.80;;;;;;;7.32;65.30;95746.34;1044779;28;20044;-71
2021/04/10 00:06:49;;;;;;;8.43;4.97;;;;;;;7.29;65.10;95745.00;1044598;28;20036;-74
2021/04/10 00:07:19;;;;;;;11.50;5.70;;;;;;;7.28;65.57;95741.56;1044340;28;20433;-72
2021/04/10 00:07:50;;;;;;;12.90;5.23;;;;;;;7.32;65.27;95749.84;1044441;28;20469;-73
2021/04/10 00:08:20;;;;;;;9.17;5.03;;;;;;;7.30;64.92;95749.28;1044375;28;20021;-72
2021/04/10 00:08:50;;;;;;;7.80;4.80;;;;;;;7.28;65.02;95746.88;1044748;28;20040;-72
2021/04/10 00:09:21;;;;;;;8.40;4.93;;;;;;;7.28;64.83;95738.91;1044654;28;20382;-72
2021/04/10 00:09:51;;;;;;;9.03;4.80;;;;;;;7.28;65.06;95740.75;1044762;28;20102;-72
2021/04/10 00:10:23;;;;;;;11.73;5.27;;;;;;;7.30;64.89;95739.44;1044672;28;20017;-72
2021/04/10 00:10:53;;;;;;;8.52;4.80;;;;;;;7.23;65.03;95736.19;1044349;28;20420;-72
2021/04/10 00:11:24;;;;;;;11.80;5.10;;;;;;;7.21;65.63;95737.50;1044282;28;20040;-73
2021/04/10 00:11:54;;;;;;;9.97;4.80;;;;;;;7.20;65.20;95744.66;1044378;28;20025;-72
2021/04/10 00:12:24;;;;;;;9.10;5.37;;;;;;;7.20;65.07;95742.00;1044263;28;20497;-73
2021/04/10 00:12:56;;;;;;;8.50;5.10;;;;;;;7.18;65.08;95738.03;1044421;28;20029;-72
2021/04/10 00:13:26;;;;;;;9.52;5.22;;;;;;;7.16;65.38;95738.25;1044382;28;20013;-72
2021/04/10 00:13:57;;;;;;;9.37;5.00;;;;;;;7.16;65.49;95740.13;1044091;28;20536;-73
2021/04/10 00:14:27;;;;;;;9.60;4.53;;;;;;;7.18;65.29;95733.50;1040535;28;20032;-72
2021/04/10 00:14:57;;;;;;;10.70;5.00;;;;;;;7.22;65.53;95728.50;1040587;28;20028;-72
2021/04/10 00:15:29;;;;;;;11.13;4.80;;;;;;;7.16;65.60;95732.94;1040524;28;20021;-72
2021/04/10 00:15:59;;;;;;;8.30;4.60;;;;;;;7.17;65.82;95737.22;1040268;28;20025;-72
2021/04/10 00:16:29;;;;;;;10.00;4.77;;;;;;;7.18;65.53;95740.69;1040123;28;20064;-72
2021/04/10 00:17:00;;;;;;;9.47;4.90;;;;;;;7.16;65.04;95738.25;1040303;28;20034;-72
2021/04/10 00:17:30;;;;;;;11.37;5.00;;;;;;;7.17;64.72;95734.56;1040276;28;20017;-72
2021/04/10 00:18:01;;;;;;;10.97;4.70;;;;;;;7.19;65.31;95735.09;1044456;28;20370;-73
2021/04/10 00:18:31;;;;;;;8.80;4.90;;;;;;;7.19;64.82;95735.09;1040149;28;20112;-72
2021/04/10 00:19:02;;;;;;;7.90;4.17;;;;;;;7.20;64.60;95734.03;1036010;28;20026;-72
2021/04/10 00:19:33;;;;;;;12.20;5.13;;;;;;;7.18;64.93;95728.19;1036120;28;20459;-71
2021/04/10 00:20:15;;;;;;;9.82;4.25;;;;;;;7.18;64.63;95730.84;1032274;28;20023;-72
2021/04/10 00:20:46;;;;;;;9.68;4.25;;;;;;;7.20;64.60;95733.25;1037845;28;20512;-71
2021/04/10 00:21:16;;;;;;;7.07;4.43;;;;;;;7.20;64.40;95727.94;1040193;28;20021;-71
2021/04/10 00:21:46;;;;;;;11.20;4.20;;;;;;;7.20;64.68;95735.91;1037754;28;20018;-71
2021/04/10 00:22:17;;;;;;;9.27;4.13;;;;;;;7.18;64.49;95730.84;1040176;28;20022;-71
2021/04/10 00:22:47;;;;;;;10.63;4.80;;;;;;;7.19;64.46;95732.44;1040095;28;20407;-73
2021/04/10 00:23:18;;;;;;;10.10;4.50;;;;;;;7.20;64.38;95738.56;1040275;28;20029;-73
2021/04/10 00:23:48;;;;;;;11.47;4.30;;;;;;;7.17;64.49;95728.44;1044335;28;20060;-72
2021/04/10 00:24:19;;;;;;;8.87;4.43;;;;;;;7.18;64.45;95727.38;1044399;28;20027;-73
2021/04/10 00:24:49;;;;;;;13.33;4.43;;;;;;;7.20;64.47;95725.28;1044074;28;20047;-72
2021/04/10 00:25:20;;;;;;;9.97;4.30;;;;;;;7.19;64.43;95727.13;1040480;28;20029;-73
2021/04/10 00:25:50;;;;;;;9.30;4.30;;;;;;;7.19;64.66;95723.69;1040450;28;20047;-72
2021/04/10 00:26:22;;;;;;;10.20;4.17;;;;;;;7.20;64.86;95725.28;1040078;28;20086;-72
2021/04/10 00:26:52;;;;;;;10.45;4.15;;;;;;;7.19;64.38;95721.81;1035960;28;20475;-71
2021/04/10 00:27:22;;;;;;;9.43;4.43;;;;;;;7.20;64.50;95725.28;1036043;28;20045;-72
2021/04/10 00:27:53;;;;;;;7.37;4.10;;;;;;;7.17;64.58;95721.28;1036261;28;20159;-72
2021/04/10 00:28:23;;;;;;;12.10;3.93;;;;;;;7.19;64.56;95723.69;1036453;28;20026;-72
2021/04/10 00:28:54;;;;;;;7.63;4.40;;;;;;;7.17;64.55;95723.94;1040093;28;20028;-71
2021/04/10 00:29:24;;;;;;;10.97;4.23;;;;;;;7.18;64.39;95722.88;1040079;28;20036;-72
2021/04/10 00:29:55;;;;;;;11.60;4.73;;;;;;;7.17;64.71;95723.13;1040114;28;20017;-72
2021/04/10 00:30:25;;;;;;;11.87;4.40;;;;;;;7.16;64.07;95724.16;1040136;28;20029;-72
2021/04/10 00:31:06;;;;;;;10.43;4.13;;;;;;;7.14;64.27;95723.63;1040111;28;20017;-72
2021/04/10 00:31:36;;;;;;;7.93;4.30;;;;;;;7.14;64.50;95728.94;1040119;28;20117;-72
2021/04/10 00:32:07;;;;;;;11.37;4.63;;;;;;;7.14;64.18;95727.09;1040274;28;20080;-71
2021/04/10 00:32:37;;;;;;;10.77;4.47;;;;;;;7.13;64.03;95717.53;1040057;28;20021;-72
2021/04/10 00:33:08;;;;;;;9.93;4.67;;;;;;;7.11;64.61;95724.94;1040195;28;20025;-71
2021/04/10 00:33:40;;;;;;;8.83;4.27;;;;;;;7.12;64.46;95720.44;1040142;28;20423;-72
2021/04/10 00:34:10;;;;;;;8.98;4.32;;;;;;;7.09;64.53;95719.06;1036065;28;20033;-71
2021/04/10 00:34:40;;;;;;;10.90;4.40;;;;;;;7.10;64.77;95719.88;1036101;28;20036;-72
2021/04/10 00:35:11;;;;;;;8.50;4.27;;;;;;;7.10;64.19;95717.22;1036078;28;20037;-71
2021/04/10 00:35:42;;;;;;;9.93;4.43;;;;;;;7.08;64.51;95720.13;1036449;28;20018;-72
2021/04/10 00:36:12;;;;;;;14.43;4.67;;;;;;;7.08;63.91;95712.16;1040182;28;20108;-72
2021/04/10 00:36:43;;;;;;;13.80;4.43;;;;;;;7.09;64.00;95726.25;1040134;28;20071;-72
2021/04/10 00:37:13;;;;;;;7.13;4.10;;;;;;;7.08;64.00;95711.38;1035969;28;20069;-72
2021/04/10 00:37:43;;;;;;;8.77;4.37;;;;;;;7.06;64.01;95719.56;1035981;28;20028;-72
2021/04/10 00:38:14;;;;;;;9.90;4.33;;;;;;;7.06;64.17;95719.56;1035990;28;20037;-72
2021/04/10 00:38:44;;;;;;;8.10;4.17;;;;;;;7.06;63.81;95718.78;1036006;28;20025;-72
2021/04/10 00:39:15;;;;;;;8.03;4.27;;;;;;;7.03;64.29;95715.59;1040149;28;20084;-72
2021/04/10 00:39:45;;;;;;;8.97;4.33;;;;;;;7.03;64.05;95712.13;1040088;28;20048;-72
2021/04/10 00:40:16;;;;;;;12.50;4.70;;;;;;;7.03;64.13;95718.25;1044254;28;20036;-72
2021/04/10 00:40:46;;;;;;;8.93;4.47;;;;;;;7.02;63.87;95713.19;1044179;28;20407;-72
2021/04/10 00:41:17;;;;;;;9.53;4.47;;;;;;;7.00;64.31;95716.06;1044250;28;20049;-72
2021/04/10 00:41:47;;;;;;;10.43;4.77;;;;;;;6.99;64.04;95714.47;1040355;28;20040;-72
2021/04/10 00:42:17;;;;;;;11.20;4.57;;;;;;;7.00;64.39;95713.41;1035820;28;20029;-71
2021/04/10 00:42:48;;;;;;;9.43;4.67;;;;;;;6.98;64.29;95712.09;1031900;28;20136;-72
2021/04/10 00:43:18;;;;;;;9.80;5.23;;;;;;;6.95;64.57;95712.59;1031865;28;20053;-72
2021/04/10 00:43:49;;;;;;;11.33;4.37;;;;;;;6.94;64.42;95713.66;1031919;28;20076;-72
2021/04/10 00:44:19;;;;;;;9.40;4.70;;;;;;;6.94;64.58;95716.31;1040230;28;20059;-72
2021/04/10 00:44:49;;;;;;;11.10;4.97;;;;;;;6.93;64.45;95714.69;1040138;28;20030;-72
2021/04/10 00:45:20;;;;;;;9.80;4.73;;;;;;;6.91;64.57;95719.44;1040092;28;20026;-72
2021/04/10 00:45:51;;;;;;;10.77;4.63;;;;;;;6.86;65.06;95719.41;1035839;28;20030;-71
2021/04/10 00:46:21;;;;;;;8.80;4.40;;;;;;;6.85;65.35;95715.16;1035977;28;20277;-72
2021/04/10 00:46:52;;;;;;;12.23;4.30;;;;;;;6.83;65.35;95720.72;1035907;28;20127;-72
2021/04/10 00:47:22;;;;;;;8.40;4.53;;;;;;;6.81;65.41;95714.88;1035946;28;20033;-72
2021/04/10 00:47:53;;;;;;;10.77;4.70;;;;;;;6.83;65.88;95712.75;1035886;28;20041;-72
2021/04/10 00:48:23;;;;;;;7.93;4.30;;;;;;;6.84;65.23;95716.22;1035989;28;20026;-71
2021/04/10 00:48:53;;;;;;;9.50;4.63;;;;;;;6.81;65.08;95717.53;1027931;28;20027;-71
2021/04/10 00:49:24;;;;;;;8.13;4.33;;;;;;;6.82;65.14;95728.97;1027966;28;20388;-72
2021/04/10 00:49:54;;;;;;;7.00;4.17;;;;;;;6.81;65.75;95719.34;1031944;28;20510;-72
2021/04/10 00:50:25;;;;;;;10.57;4.70;;;;;;;6.79;65.77;95716.97;1036073;28;20485;-71
2021/04/10 00:50:55;;;;;;;8.50;4.30;;;;;;;6.81;65.73;95722.84;1042584;28;20026;-72
2021/04/10 00:51:26;;;;;;;9.23;4.20;;;;;;;6.80;65.16;95720.41;1043823;28;20562;-72
2021/04/10 00:51:56;;;;;;;9.63;4.53;;;;;;;6.80;65.06;95717.75;1044076;28;20021;-72
2021/04/10 00:52:26;;;;;;;9.67;5.50;;;;;;;6.78;65.07;95718.81;1044258;28;20020;-72
2021/04/10 00:52:57;;;;;;;10.23;4.63;;;;;;;6.77;65.15;95727.06;1044165;28;20056;-72
2021/04/10 00:53:27;;;;;;;8.23;4.90;;;;;;;6.74;65.56;95723.03;1044215;28;20131;-73
2021/04/10 00:53:58;;;;;;;8.50;4.87;;;;;;;6.77;65.23;95724.41;1039486;28;20033;-71
2021/04/10 00:54:28;;;;;;;11.17;4.67;;;;;;;6.74;65.14;95722.22;1036078;28;20029;-72
2021/04/10 00:54:59;;;;;;;10.17;4.80;;;;;;;6.71;65.74;95728.06;1040040;28;20037;-71
2021/04/10 00:55:29;;;;;;;7.87;4.13;;;;;;;6.69;65.89;95725.63;1032086;28;20025;-72
2021/04/10 00:56:05;;;;;;;9.80;4.63;;;;;;;6.69;65.58;95722.97;1031770;28;20484;-71
2021/04/10 00:56:35;;;;;;;10.88;4.50;;;;;;;6.65;65.98;95721.88;1035896;28;20022;-72
2021/04/10 00:57:06;;;;;;;8.47;4.60;;;;;;;6.64;65.90;95722.13;1037420;28;20026;-72
2021/04/10 00:57:36;;;;;;;9.20;4.73;;;;;;;6.62;65.43;95717.09;1040829;28;20025;-72
2021/04/10 00:58:06;;;;;;;8.13;4.27;;;;;;;6.63;66.00;95718.69;1044129;28;20547;-72
2021/04/10 00:58:37;;;;;;;8.23;4.30;;;;;;;6.64;65.84;95717.63;1044150;28;20028;-72
2021/04/10 00:59:07;;;;;;;8.00;4.03;;;;;;;6.62;65.67;95725.06;1040010;28;20200;-71
2021/04/10 00:59:38;;;;;;;10.30;5.00;;;;;;;6.60;65.95;95718.38;1044222;28;20074;-72
2021/04/10 01:00:08;;;;;;;9.33;4.60;;;;;;;6.56;65.94;95717.31;1035989;28;20018;-71
2021/04/10 01:00:40;;;;;;;8.03;4.63;;;;;;;6.49;66.63;95717.47;1035980;28;20030;-71
2021/04/10 01:01:10;;;;;;;9.10;4.47;;;;;;;6.47;66.78;95714.28;1039856;28;20120;-72
2021/04/10 01:01:40;;;;;;;10.70;4.30;;;;;;;6.45;67.00;95709.22;1040283;28;20041;-72
2021/04/10 01:02:11;;;;;;;9.70;4.87;;;;;;;6.45;66.71;95709.22;1044374;28;20021;-72
2021/04/10 01:02:42;;;;;;;11.57;4.60;;;;;;;6.44;66.35;95717.44;1039978;28;20355;-71
2021/04/10 01:03:13;;;;;;;11.00;4.45;;;;;;;6.42;66.64;95711.56;1039952;28;20060;-71
2021/04/10 01:03:43;;;;;;;8.80;4.23;;;;;;;6.38;66.78;95705.97;1035964;28;20538;-71
2021/04/10 01:04:13;;;;;;;10.23;4.80;;;;;;;6.39;66.74;95715.53;1036351;28;20022;-71
2021/04/10 01:04:44;;;;;;;9.37;4.33;;;;;;;6.42;66.68;95714.22;1044168;28;20013;-72
2021/04/10 01:05:14;;;;;;;9.23;4.63;;;;;;;6.32;67.17;95711.47;1044137;28;20025;-71
2021/04/10 01:05:45;;;;;;;10.07;4.83;;;;;;;6.34;66.93;95719.97;1044114;28;20017;-73
2021/04/10 01:06:15;;;;;;;7.73;4.63;;;;;;;6.34;66.89;95710.16;1040313;28;20025;-72
2021/04/10 01:06:46;;;;;;;9.57;4.60;;;;;;;6.31;67.08;95713.31;1044090;28;20028;-72
2021/04/10 01:07:16;;;;;;;8.97;4.13;;;;;;;6.31;67.13;95712.53;1044072;28;20417;-71
2021/04/10 01:07:46;;;;;;;8.10;4.70;;;;;;;6.29;67.17;95711.97;1039985;28;20517;-72
2021/04/10 01:08:17;;;;;;;10.80;5.27;;;;;;;6.28;67.17;95718.31;1039947;28;20021;-72
2021/04/10 01:08:47;;;;;;;8.30;4.70;;;;;;;6.23;67.27;95717.22;1039932;28;20025;-72
2021/04/10 01:09:18;;;;;;;12.10;4.33;;;;;;;6.27;67.43;95720.19;1039956;28;20359;-71
2021/04/10 01:09:48;;;;;;;9.60;4.70;;;;;;;6.27;67.26;95717.53;1040336;28;20386;-73
2021/04/10 01:10:19;;;;;;;7.80;4.40;;;;;;;6.28;66.90;95720.97;1039938;28;20408;-72
2021/04/10 01:10:50;;;;;;;13.13;4.50;;;;;;;6.31;67.22;95720.50;1039818;28;20021;-72
2021/04/10 01:11:42;;;;;;;13.55;5.00;;;;;;;6.27;67.00;95712.22;1035717;28;20053;-71
2021/04/10 01:12:57;;;;;;;11.73;4.82;;;;;;;6.21;67.17;95721.97;1035772;28;20037;-71
2021/04/10 01:13:45;;;;;;;10.60;4.75;;;;;;;6.17;67.50;95718.22;1031437;28;20475;-71
2021/04/10 01:14:34;;;;;;;10.27;4.80;;;;;;;6.19;67.22;95720.59;1031290;28;20495;-71
2021/04/10 01:15:30;;;;;;;9.45;5.45;;;;;;;6.23;67.23;95721.72;1031608;28;20242;-72
2021/04/10 01:16:19;;;;;;;7.43;3.97;;;;;;;6.21;67.26;95718.53;1029338;28;20370;-72
2021/04/10 01:16:58;;;;;;;8.70;4.68;;;;;;;6.19;67.44;95720.59;1035785;28;20514;-71
2021/04/10 01:17:30;;;;;;;10.88;4.90;;;;;;;6.18;67.91;95719.00;1031838;28;20174;-71
2021/04/10 01:18:26;;;;;;;9.80;4.72;;;;;;;6.13;67.85;95721.59;1035781;28;20052;-72
2021/04/10 01:19:09;;;;;;;9.45;4.65;;;;;;;6.15;67.48;95720.31;1026989;28;20047;-71
2021/04/10 01:19:57;;;;;;;10.48;4.80;;;;;;;6.13;67.44;95724.25;1031557;28;20034;-71
2021/04/10 01:20:53;;;;;;;8.85;4.47;;;;;;;6.08;67.56;95711.72;1031666;28;20034;-72
2021/04/10 01:21:30;;;;;;;7.80;4.50;;;;;;;6.04;68.25;95717.78;1037784;28;20073;-71
2021/04/10 01:22:28;;;;;;;8.88;4.20;;;;;;;5.99;68.05;95710.59;1039965;28;20032;-72
2021/04/10 01:23:20;;;;;;;10.93;4.68;;;;;;;5.96;68.11;95719.03;1040032;28;20017;-72
2021/04/10 01:24:12;;;;;;;9.40;4.50;;;;;;;5.97;68.09;95717.97;1040142;28;20132;-72
2021/04/10 01:25:04;;;;;;;10.23;4.53;;;;;;;5.98;68.01;95715.06;1040195;28;20033;-73
2021/04/10 01:25:51;;;;;;;9.10;4.28;;;;;;;5.96;68.25;95721.69;1040123;28;20033;-72
2021/04/10 01:26:24;;;;;;;10.38;4.78;;;;;;;5.98;68.00;95716.91;1035901;28;20418;-72
2021/04/10 01:27:06;;;;;;;11.98;5.05;;;;;;;5.99;68.04;95715.91;1035749;28;20030;-72
2021/04/10 01:27:47;;;;;;;10.35;4.63;;;;;;;5.95;68.03;95720.88;1035777;28;20033;-72
2021/04/10 01:28:42;;;;;;;9.25;4.32;;;;;;;5.94;68.40;95724.59;1043221;28;20044;-72
2021/04/10 01:29:13;;;;;;;11.02;4.90;;;;;;;5.97;68.29;95712.66;1044011;28;20367;-74
2021/04/10 01:29:48;;;;;;;8.48;4.28;;;;;;;5.96;68.02;95717.19;1043400;28;20020;-73
2021/04/10 01:30:19;;;;;;;8.40;5.15;;;;;;;5.98;67.96;95717.72;1039968;28;20104;-72
2021/04/10 01:30:50;;;;;;;8.95;4.63;;;;;;;5.99;67.90;95719.34;1039883;28;20351;-72
2021/04/10 01:31:26;;;;;;;12.60;4.73;;;;;;;5.99;67.63;95713.25;1035860;28;20088;-71
2021/04/10 01:31:57;;;;;;;11.35;4.85;;;;;;;5.99;68.14;95716.69;1036919;28;20112;-72
2021/04/10 01:32:29;;;;;;;11.27;4.80;;;;;;;5.97;68.39;95723.28;1035990;28;20029;-72
2021/04/10 01:33:12;;;;;;;9.27;4.75;;;;;;;5.98;68.90;95719.56;1031853;28;20081;-72
2021/04/10 01:33:46;;;;;;;9.57;4.70;;;;;;;5.95;68.47;95712.94;1033988;28;20098;-71
2021/04/10 01:34:20;;;;;;;9.32;5.00;;;;;;;5.97;68.32;95717.97;1034426;28;20038;-71
2021/04/10 01:34:55;;;;;;;8.90;4.78;;;;;;;5.96;68.90;95721.69;1038465;28;20387;-72
2021/04/10 01:35:30;;;;;;;12.13;4.75;;;;;;;5.92;68.78;95720.56;1035905;28;20542;-72
2021/04/10 01:36:00;;;;;;;13.48;5.20;;;;;;;5.94;68.68;95713.97;1029774;28;20066;-73
2021/04/10 01:36:32;;;;;;;7.97;4.13;;;;;;;5.96;68.58;95721.69;1027751;28;20018;-72
2021/04/10 01:37:26;;;;;;;11.68;4.80;;;;;;;5.94;68.59;95726.44;1023762;29;20039;-72
2021/04/10 01:38:00;;;;;;;10.95;4.80;;;;;;;5.97;67.93;95712.66;1029671;28;20388;-71
2021/04/10 01:38:30;;;;;;;10.73;4.78;;;;;;;5.97;68.33;95724.06;1027814;28;20078;-72
2021/04/10 01:39:01;;;;;;;9.30;4.80;;;;;;;5.98;68.15;95722.22;1027747;28;20449;-72
2021/04/10 01:39:32;;;;;;;7.97;4.72;;;;;;;5.99;67.81;95721.19;1028420;28;20058;-72
2021/04/10 01:40:03;;;;;;;11.63;5.13;;;;;;;5.99;68.35;95719.34;1027898;28;20027;-71
2021/04/10 01:40:34;;;;;;;11.82;4.95;;;;;;;5.96;68.54;95711.88;1028088;28;20049;-73
2021/04/10 01:41:04;;;;;;;12.80;4.80;;;;;;;5.95;68.19;95715.56;1031716;28;20036;-74
2021/04/10 01:41:35;;;;;;;11.97;5.40;;;;;;;5.95;68.47;95717.44;1027978;28;20099;-72
2021/04/10 01:42:06;;;;;;;10.40;4.70;;;;;;;5.97;68.36;95717.97;1031713;28;20440;-72
2021/04/10 01:42:36;;;;;;;8.93;5.00;;;;;;;5.99;68.48;95723.84;1027884;28;20022;-72
2021/04/10 01:43:06;;;;;;;7.60;5.00;;;;;;;5.96;68.22;95714.53;1027737;28;20042;-73
2021/04/10 01:43:37;;;;;;;10.80;5.20;;;;;;;5.98;67.86;95712.41;1031911;28;20348;-72
2021/04/10 01:44:07;;;;;;;8.30;4.70;;;;;;;5.96;68.16;95717.19;1027588;28;20019;-73
2021/04/10 01:44:38;;;;;;;9.17;4.80;;;;;;;5.97;67.94;95712.66;1023838;29;20019;-72
2021/04/10 01:45:09;;;;;;;10.03;4.80;;;;;;;5.94;68.39;95706.03;1023884;28;20086;-71
2021/04/10 01:45:39;;;;;;;9.88;5.15;;;;;;;5.94;68.33;95711.31;1023870;28;20020;-71
2021/04/10 01:46:09;;;;;;;9.60;5.23;;;;;;;5.92;68.53;95715.25;1027711;28;20042;-71
2021/04/10 01:46:40;;;;;;;9.57;5.40;;;;;;;5.94;68.65;95718.47;1031705;28;20042;-71
2021/04/10 01:47:12;;;;;;;13.07;5.43;;;;;;;5.89;68.63;95715.75;1031658;28;20062;-72
2021/04/10 01:47:43;;;;;;;9.73;5.15;;;;;;;5.90;68.69;95712.84;1031949;28;20133;-71
2021/04/10 01:48:14;;;;;;;11.35;5.22;;;;;;;5.87;68.47;95713.31;1032348;28;20034;-71
2021/04/10 01:48:45;;;;;;;9.38;5.13;;;;;;;5.90;68.64;95717.34;1039938;28;20366;-71
2021/04/10 01:49:15;;;;;;;9.07;4.63;;;;;;;5.88;68.67;95712.25;1035800;28;20029;-71
2021/04/10 01:49:46;;;;;;;13.57;5.30;;;;;;;5.88;68.80;95714.91;1035947;28;20029;-72
2021/04/10 01:50:16;;;;;;;9.53;4.93;;;;;;;5.88;68.59;95717.56;1031712;28;20038;-72
2021/04/10 01:50:47;;;;;;;8.70;4.70;;;;;;;5.87;68.69;95715.16;1031796;28;20096;-72
2021/04/10 01:51:17;;;;;;;8.67;4.70;;;;;;;5.84;69.25;95711.16;1027696;28;20043;-72
2021/04/10 01:51:48;;;;;;;10.97;4.63;;;;;;;5.82;69.58;95709.78;1027801;28;20085;-73
2021/04/10 01:52:18;;;;;;;9.53;4.80;;;;;;;5.77;70.06;95713.19;1023689;29;20365;-73
2021/04/10 01:52:49;;;;;;;10.70;4.73;;;;;;;5.71;69.54;95716.81;1023803;28;20331;-72
2021/04/10 01:53:19;;;;;;;7.70;4.40;;;;;;;5.68;69.86;95710.19;1027848;28;20053;-73
2021/04/10 01:53:49;;;;;;;8.27;4.40;;;;;;;5.73;69.82;95718.19;1031698;28;20026;-73
2021/04/10 01:54:20;;;;;;;9.50;4.57;;;;;;;5.69;69.33;95717.09;1031969;28;20034;-72
2021/04/10 01:54:50;;;;;;;11.20;4.47;;;;;;;5.69;69.56;95725.03;1038153;28;20026;-72
2021/04/10 01:55:21;;;;;;;10.00;4.53;;;;;;;5.72;69.70;95721.06;1030760;28;20460;-72
2021/04/10 01:55:52;;;;;;;11.10;4.80;;;;;;;5.76;69.64;95711.59;1030752;28;20484;-73
2021/04/10 01:56:22;;;;;;;11.97;4.80;;;;;;;5.78;69.75;95714.00;1031272;28;20019;-72
2021/04/10 01:56:53;;;;;;;8.57;4.87;;;;;;;5.78;69.76;95717.44;1027150;28;20101;-72
2021/04/10 01:57:23;;;;;;;10.53;4.90;;;;;;;5.80;69.19;95720.66;1026471;28;20492;-72
2021/04/10 01:57:53;;;;;;;10.77;4.73;;;;;;;5.81;68.92;95719.59;1029869;28;20023;-73
2021/04/10 01:58:24;;;;;;;11.30;4.87;;;;;;;5.81;69.38;95713.50;1030382;28;20094;-73
2021/04/10 01:58:55;;;;;;;9.17;4.67;;;;;;;5.81;69.30;95724.13;1032945;28;20026;-72
2021/04/10 01:59:25;;;;;;;8.87;5.07;;;;;;;5.82;69.31;95721.22;1036317;28;20041;-72
2021/04/10 01:59:57;;;;;;;9.43;4.03;;;;;;;5.86;68.86;95724.19;1036107;28;20025;-73
2021/04/10 02:00:29;;;;;;;9.70;4.88;;;;;;;5.87;68.95;95723.13;1039005;28;20030;-72
2021/04/10 02:00:59;;;;;;;8.75;4.70;;;;;;;5.86;69.07;95719.66;1035564;28;20113;-72
2021/04/10 02:01:30;;;;;;;8.30;4.60;;;;;;;5.88;68.79;95719.41;1031760;28;20018;-72
2021/04/10 02:02:00;;;;;;;10.67;4.70;;;;;;;5.85;69.04;95722.56;1027742;28;20350;-73
2021/04/10 02:02:31;;;;;;;9.13;4.47;;;;;;;5.86;69.36;95722.31;1028124;28;20054;-73
2021/04/10 02:03:01;;;;;;;10.57;4.53;;;;;;;5.85;68.81;95725.22;1031895;28;20027;-72
2021/04/10 02:03:32;;;;;;;8.43;4.63;;;;;;;5.85;68.57;95726.03;1036151;28;20418;-73
2021/04/10 02:04:02;;;;;;;11.60;4.80;;;;;;;5.88;68.68;95724.72;1035834;28;20030;-72
2021/04/10 02:04:35;;;;;;;9.63;5.13;;;;;;;5.89;68.24;95727.16;1036033;28;20046;-72
2021/04/10 02:05:07;;;;;;;11.43;4.60;;;;;;;5.88;68.83;95725.53;1039749;28;20017;-73
2021/04/10 02:05:38;;;;;;;12.30;5.03;;;;;;;5.91;68.72;95722.41;1036280;28;20533;-72
2021/04/10 02:06:12;;;;;;;11.63;4.70;;;;;;;5.92;68.61;95725.88;1033570;28;20108;-73
2021/04/10 02:06:45;;;;;;;7.85;4.85;;;;;;;5.91;68.87;95725.06;1032346;28;20030;-72
2021/04/10 02:07:15;;;;;;;9.10;4.10;;;;;;;5.84;68.78;95724.44;1032622;28;20026;-72
2021/04/10 02:07:47;;;;;;;9.50;4.47;;;;;;;5.83;69.00;95716.69;1032654;28;20027;-72
2021/04/10 02:08:18;;;;;;;8.40;4.32;;;;;;;5.85;69.11;95717.28;1031521;28;20011;-72
2021/04/10 02:08:51;;;;;;;13.48;5.13;;;;;;;5.83;69.17;95722.00;1031714;28;20062;-72
2021/04/10 02:09:23;;;;;;;7.93;4.22;;;;;;;5.79;69.03;95727.03;1031626;28;20019;-72
2021/04/10 02:09:53;;;;;;;8.90;4.72;;;;;;;5.80;69.18;95717.22;1027696;28;20488;-72
2021/04/10 02:10:24;;;;;;;11.03;4.80;;;;;;;5.80;68.86;95720.66;1032341;28;20015;-72
2021/04/10 02:10:55;;;;;;;7.28;4.20;;;;;;;5.83;68.56;95724.66;1032329;28;20041;-73
2021/04/10 02:11:26;;;;;;;7.80;4.17;;;;;;;5.84;69.04;95723.63;1035932;28;20049;-72
2021/04/10 02:11:56;;;;;;;8.07;4.50;;;;;;;5.83;68.72;95714.84;1035711;28;20024;-72
2021/04/10 02:12:27;;;;;;;11.23;4.43;;;;;;;5.80;68.86;95719.88;1035688;28;20501;-73
2021/04/10 02:12:57;;;;;;;6.50;4.13;;;;;;;5.79;69.04;95726.22;1031952;28;20065;-72
2021/04/10 02:13:29;;;;;;;10.53;4.60;;;;;;;5.83;68.52;95722.81;1031711;28;20125;-72
2021/04/10 02:14:01;;;;;;;10.95;4.28;;;;;;;5.86;68.88;95721.53;1035783;28;20022;-72
2021/04/10 02:14:32;;;;;;;10.73;4.85;;;;;;;5.87;68.48;95723.13;1031585;28;20476;-72
2021/04/10 02:15:03;;;;;;;11.17;4.30;;;;;;;5.80;68.82;95717.22;1028145;28;20019;-72
2021/04/10 02:15:33;;;;;;;7.60;4.35;;;;;;;5.80;69.69;95725.97;1028115;28;20423;-73
2021/04/10 02:16:04;;;;;;;10.83;4.43;;;;;;;5.79;69.06;95728.88;1031845;28;20030;-72
2021/04/10 02:16:35;;;;;;;8.23;4.33;;;;;;;5.73;69.23;95726.16;1035896;28;20022;-71
2021/04/10 02:17:07;;;;;;;8.97;4.40;;;;;;;5.78;69.63;95728.03;1039933;28;20014;-73
2021/04/10 02:17:37;;;;;;;9.02;4.60;;;;;;;5.78;69.51;95729.91;1039653;28;20033;-72
2021/04/10 02:18:08;;;;;;;7.07;4.30;;;;;;;5.80;69.58;95727.81;1039717;28;20451;-72
2021/04/10 02:18:38;;;;;;;11.90;4.57;;;;;;;5.78;69.43;95725.38;1039716;28;20168;-72
2021/04/10 02:19:09;;;;;;;7.43;4.00;;;;;;;5.85;69.29;95727.88;1035887;28;20463;-72
2021/04/10 02:19:39;;;;;;;9.17;4.60;;;;;;;5.89;68.97;95716.53;1039687;28;20473;-73
2021/04/10 02:20:11;;;;;;;9.47;4.57;;;;;;;5.85;68.75;95719.94;1035677;28;20022;-72
2021/04/10 02:20:42;;;;;;;10.48;4.28;;;;;;;5.86;69.16;95716.22;1035913;28;20068;-72
2021/04/10 02:21:12;;;;;;;9.03;4.10;;;;;;;5.86;69.00;95717.03;1041362;28;20144;-72
2021/04/10 02:21:43;;;;;;;8.73;4.17;;;;;;;5.91;68.77;95722.41;1043879;28;20033;-73
2021/04/10 02:22:14;;;;;;;9.87;4.63;;;;;;;5.89;69.26;95716.53;1044015;28;20024;-73
2021/04/10 02:22:50;;;;;;;10.63;4.32;;;;;;;5.86;69.14;95719.66;1043832;28;20028;-72
2021/04/10 02:23:20;;;;;;;9.02;3.90;;;;;;;5.87;69.37;95731.09;1043993;28;20029;-72
2021/04/10 02:23:51;;;;;;;8.73;4.30;;;;;;;5.88;68.86;95727.38;1043933;28;20040;-72
2021/04/10 02:24:21;;;;;;;9.10;4.00;;;;;;;5.90;68.89;95720.00;1043959;28;20056;-72
2021/04/10 02:24:52;;;;;;;7.83;3.93;;;;;;;5.89;69.16;95724.50;1043993;28;20025;-72
2021/04/10 02:25:27;;;;;;;8.90;4.03;;;;;;;5.88;68.72;95725.53;1043918;28;20020;-72
2021/04/10 02:25:59;;;;;;;6.90;4.03;;;;;;;5.85;69.38;95719.94;1044621;28;20074;-72
2021/04/10 02:26:30;;;;;;;8.38;4.07;;;;;;;5.80;69.40;95730.47;1044824;28;20515;-73
2021/04/10 02:27:00;;;;;;;8.40;4.13;;;;;;;5.87;69.29;95723.13;1045105;28;20025;-72
2021/04/10 02:27:31;;;;;;;8.83;3.87;;;;;;;5.85;69.53;95727.88;1045093;28;20025;-72
2021/04/10 02:28:01;;;;;;;7.57;3.90;;;;;;;5.86;68.96;95724.19;1044976;28;20048;-72
2021/04/10 02:28:32;;;;;;;7.17;4.07;;;;;;;5.85;69.05;95723.38;1045026;28;20025;-73
2021/04/10 02:29:02;;;;;;;6.67;4.00;;;;;;;5.89;68.96;95718.41;1045015;28;20454;-72
2021/04/10 02:29:33;;;;;;;11.03;4.10;;;;;;;5.90;68.65;95718.13;1044713;28;20013;-72
2021/04/10 02:30:04;;;;;;;10.90;4.17;;;;;;;5.92;68.49;95720.56;1040662;28;20421;-72
2021/04/10 02:30:34;;;;;;;10.60;4.32;;;;;;;5.95;68.75;95728.03;1040621;28;20088;-72
2021/04/10 02:31:05;;;;;;;8.77;4.10;;;;;;;5.96;68.87;95722.47;1035797;28;20411;-72
2021/04/10 02:31:48;;;;;;;9.53;4.43;;;;;;;5.96;68.76;95724.34;1032669;28;20486;-73
2021/04/10 02:32:21;;;;;;;8.45;3.75;;;;;;;5.97;68.56;95725.94;1036479;28;20030;-72
2021/04/10 02:33:01;;;;;;;8.18;4.10;;;;;;;5.98;68.52;95720.38;1034471;28;20104;-72
2021/04/10 02:33:39;;;;;;;7.80;4.32;;;;;;;5.99;68.46;95719.34;1039946;28;20121;-73
2021/04/10 02:34:13;;;;;;;12.45;5.03;;;;;;;5.95;68.72;95718.22;1040589;28;20040;-73